Time;durP1;ratioP1;P1;durP2;ratioP2;P2;SDS_P1;SDS_P2;PMS_P1;PMS_P2;Temp;Humidity;BMP_temperature;BMP_pressure;BME280_temperature;BME280_humidity;BME280_pressure;Samples;Min_cycle;Max_cycle;Signal;HPM_P1;HPM_P2
2021/09/06 00:02:03;;;;;;;17.77;16.08;;;;;;;18.93;53.04;95910.28;5014924;28;20446;-77
2021/09/06 00:04:29;;;;;;;17.42;15.75;;;;;;;18.84;52.91;95893.47;4998469;28;20109;-76
2021/09/06 00:06:55;;;;;;;16.80;15.13;;;;;;;18.85;53.18;95909.28;4996593;28;20062;-77
2021/09/06 00:09:20;;;;;;;16.98;15.25;;;;;;;18.88;53.24;95910.50;4995330;28;20495;-77
2021/09/06 00:11:46;;;;;;;16.15;14.57;;;;;;;18.92;53.30;95920.28;5013986;28;20034;-77
2021/09/06 00:14:11;;;;;;;16.55;14.85;;;;;;;18.83;53.07;95900.72;5013990;28;20802;-76
2021/09/06 00:16:37;;;;;;;19.27;17.23;;;;;;;18.81;53.13;95899.50;5013818;28;20022;-77
2021/09/06 00:19:02;;;;;;;16.48;14.98;;;;;;;18.78;53.24;95903.66;4997844;28;20022;-77
2021/09/06 00:21:30;;;;;;;17.67;16.05;;;;;;;18.83;52.93;95916.13;4996365;28;20026;-76
2021/09/06 00:23:55;;;;;;;18.17;16.33;;;;;;;18.61;53.16;95888.47;4995928;28;20116;-77
2021/09/06 00:26:21;;;;;;;17.00;15.20;;;;;;;18.72;53.03;95915.78;5013020;28;20666;-76
2021/09/06 00:28:46;;;;;;;17.98;15.95;;;;;;;18.64;53.28;95905.91;5013191;28;20017;-77
2021/09/06 00:31:14;;;;;;;21.58;18.40;;;;;;;18.72;53.35;95921.19;4998034;28;20476;-77
2021/09/06 00:33:40;;;;;;;18.23;16.20;;;;;;;18.61;53.57;95907.34;5013570;28;20434;-77
2021/09/06 00:36:05;;;;;;;18.63;16.73;;;;;;;18.53;53.37;95910.13;5013714;28;20042;-76
2021/09/06 00:38:30;;;;;;;19.92;17.95;;;;;;;18.58;53.28;95918.00;5013311;28;20041;-76
2021/09/06 00:40:56;;;;;;;15.77;14.38;;;;;;;18.49;53.21;95912.72;5012691;28;20377;-78
2021/09/06 00:43:21;;;;;;;21.25;17.40;;;;;;;18.54;53.43;95917.13;5015291;28;20530;-77
2021/09/06 00:45:46;;;;;;;17.77;15.85;;;;;;;18.54;53.30;95925.97;5013347;28;20048;-76
2021/09/06 00:48:18;;;;;;;21.42;17.88;;;;;;;18.51;53.37;95923.94;5013683;28;20088;-78
2021/09/06 00:50:45;;;;;;;18.40;16.70;;;;;;;18.43;53.17;95920.25;5013051;28;20048;-77
2021/09/06 00:53:10;;;;;;;16.25;14.68;;;;;;;18.35;53.17;95906.88;4996164;28;20384;-76
2021/09/06 00:55:36;;;;;;;18.55;16.63;;;;;;;18.40;53.33;95925.50;5013294;28;20076;-72
2021/09/06 00:58:01;;;;;;;16.08;14.70;;;;;;;18.33;53.17;95915.28;5015357;28;20026;-77
2021/09/06 01:00:27;;;;;;;18.92;17.08;;;;;;;18.39;53.23;95926.63;5011623;28;20038;-77
2021/09/06 01:02:52;;;;;;;16.27;14.63;;;;;;;18.36;53.26;95917.31;5012161;28;20419;-78
2021/09/06 01:05:17;;;;;;;16.63;15.02;;;;;;;18.35;53.21;95913.03;5012886;28;20487;-77
2021/09/06 01:07:43;;;;;;;17.05;15.32;;;;;;;18.39;53.39;95924.72;4995739;28;20022;-77
2021/09/06 01:10:11;;;;;;;19.02;17.05;;;;;;;18.37;53.27;95918.09;5013785;28;20030;-78
2021/09/06 01:12:37;;;;;;;16.30;14.23;;;;;;;18.31;53.14;95922.91;5012425;28;20030;-77
2021/09/06 01:15:04;;;;;;;17.65;15.82;;;;;;;18.24;53.20;95913.81;5013131;28;20399;-77
2021/09/06 01:17:30;;;;;;;17.33;15.38;;;;;;;18.19;53.33;95915.59;4995692;28;20042;-76
2021/09/06 01:19:55;;;;;;;18.52;16.73;;;;;;;18.16;53.29;95912.78;5012560;28;20112;-77
2021/09/06 01:22:21;;;;;;;15.85;14.43;;;;;;;18.21;53.01;95933.31;5014881;28;20033;-77
2021/09/06 01:24:46;;;;;;;18.08;16.20;;;;;;;18.10;53.04;95928.34;4994694;28;20038;-77
2021/09/06 01:27:13;;;;;;;18.33;15.85;;;;;;;18.05;53.19;95919.72;5012698;28;20072;-77
2021/09/06 01:29:39;;;;;;;20.75;18.15;;;;;;;18.05;53.25;95925.88;5012067;28;20045;-77
2021/09/06 01:32:06;;;;;;;22.73;18.73;;;;;;;18.09;53.21;95934.88;5012701;28;20030;-77
2021/09/06 01:34:32;;;;;;;18.20;16.17;;;;;;;18.00;53.31;95920.69;5014203;28;20121;-77
2021/09/06 01:36:57;;;;;;;18.92;16.42;;;;;;;18.02;52.91;95931.94;5012798;28;20125;-76
2021/09/06 01:39:23;;;;;;;20.08;17.30;;;;;;;17.92;53.25;95918.91;4994493;28;20527;-76
2021/09/06 01:41:48;;;;;;;19.60;17.50;;;;;;;17.97;53.12;95926.75;4994293;28;20499;-78
2021/09/06 01:44:14;;;;;;;20.17;16.83;;;;;;;17.93;53.31;95937.41;5012496;28;20029;-78
2021/09/06 01:46:39;;;;;;;17.83;16.00;;;;;;;17.93;53.31;95939.31;5012619;28;20022;-78
2021/09/06 01:49:05;;;;;;;20.75;17.63;;;;;;;17.88;53.29;95931.44;5014189;28;20026;-78
2021/09/06 01:51:30;;;;;;;15.60;14.10;;;;;;;17.90;53.36;95926.50;5012583;28;20041;-78
2021/09/06 01:53:56;;;;;;;16.67;14.82;;;;;;;17.89;53.24;95920.34;5012606;28;20029;-79
2021/09/06 01:56:25;;;;;;;18.08;16.23;;;;;;;17.93;53.09;95932.00;4994411;28;20056;-78
2021/09/06 01:58:50;;;;;;;15.90;14.40;;;;;;;17.88;52.86;95932.22;4994327;28;20034;-77
2021/09/06 02:01:16;;;;;;;20.20;16.60;;;;;;;17.85;52.87;95932.09;5014051;28;20026;-77
2021/09/06 02:03:42;;;;;;;16.67;15.07;;;;;;;17.81;53.03;95931.16;5011038;28;20069;-77
2021/09/06 02:06:08;;;;;;;19.75;16.98;;;;;;;17.77;52.91;95930.28;4993473;28;20511;-77
2021/09/06 02:08:33;;;;;;;16.98;15.38;;;;;;;17.70;52.96;95924.59;5010677;28;20041;-78
2021/09/06 02:10:59;;;;;;;17.35;15.65;;;;;;;17.70;52.96;95936.13;5010194;28;20080;-78
2021/09/06 02:13:24;;;;;;;15.80;14.35;;;;;;;17.62;53.12;95935.13;5012397;28;20033;-78
2021/09/06 02:15:51;;;;;;;18.13;15.98;;;;;;;17.56;53.17;95931.06;5010908;28;20503;-78
2021/09/06 02:18:16;;;;;;;21.02;17.52;;;;;;;17.57;53.25;95938.00;4993938;28;20049;-77
2021/09/06 02:20:41;;;;;;;16.90;15.13;;;;;;;17.60;53.02;95945.41;5011328;28;20042;-77
2021/09/06 02:23:07;;;;;;;17.58;15.55;;;;;;;17.59;53.14;95943.03;5011203;28;20418;-77
2021/09/06 02:25:33;;;;;;;15.02;13.40;;;;;;;17.52;53.32;95930.13;4995389;28;20537;-79
2021/09/06 02:27:58;;;;;;;16.33;14.68;;;;;;;17.54;53.05;95935.97;5010958;28;20026;-77
2021/09/06 02:30:24;;;;;;;17.88;15.82;;;;;;;17.57;53.09;95934.53;5010768;28;20034;-77
2021/09/06 02:32:49;;;;;;;15.32;13.85;;;;;;;17.56;53.24;95935.66;5011620;28;20480;-78
2021/09/06 02:35:15;;;;;;;15.50;14.15;;;;;;;17.49;53.10;95928.09;4993581;28;20034;-78
2021/09/06 02:37:42;;;;;;;16.23;14.57;;;;;;;17.53;52.94;95938.97;5011501;28;20050;-78
2021/09/06 02:40:09;;;;;;;15.63;14.02;;;;;;;17.46;53.03;95931.44;5012544;28;20537;-77
2021/09/06 02:42:34;;;;;;;15.25;13.38;;;;;;;17.47;52.92;95937.63;5011450;28;20026;-77
2021/09/06 02:45:00;;;;;;;17.77;15.80;;;;;;;17.37;52.95;95928.81;5011511;28;20034;-77
2021/09/06 02:47:28;;;;;;;17.58;15.90;;;;;;;17.38;52.90;95925.00;5010520;28;20414;-78
2021/09/06 02:49:54;;;;;;;17.65;16.05;;;;;;;17.43;52.98;95942.84;4993043;28;20030;-78
2021/09/06 02:52:19;;;;;;;17.77;15.95;;;;;;;17.37;52.88;95938.78;5013202;28;20072;-76
2021/09/06 02:54:44;;;;;;;16.23;14.63;;;;;;;17.30;52.91;95930.44;5011235;28;20117;-78
2021/09/06 02:57:10;;;;;;;17.65;15.95;;;;;;;17.30;52.92;95935.81;5010758;28;20034;-77
2021/09/06 02:59:36;;;;;;;20.35;17.00;;;;;;;17.25;52.79;95923.38;4993028;28;20511;-78
2021/09/06 03:02:02;;;;;;;19.13;16.20;;;;;;;17.24;52.84;95915.63;5011232;28;20124;-77
2021/09/06 03:04:28;;;;;;;20.75;16.23;;;;;;;17.20;52.88;95915.50;5012869;28;20630;-77
2021/09/06 03:06:53;;;;;;;26.90;16.08;;;;;;;17.29;53.22;95939.63;5010922;28;20164;-77
2021/09/06 03:09:19;;;;;;;16.98;14.82;;;;;;;17.22;52.91;95925.94;5010743;28;22008;-76
2021/09/06 03:11:44;;;;;;;17.73;15.82;;;;;;;17.23;52.98;95927.50;4992897;28;20042;-78
2021/09/06 03:14:09;;;;;;;20.30;16.58;;;;;;;17.21;52.85;95924.34;5010847;28;20038;-77
2021/09/06 03:16:35;;;;;;;18.50;16.60;;;;;;;17.15;52.72;95927.22;4995315;28;20022;-77
2021/09/06 03:19:00;;;;;;;15.90;14.30;;;;;;;17.15;52.93;95934.50;5010619;28;20038;-78
2021/09/06 03:21:25;;;;;;;17.08;15.02;;;;;;;17.08;52.89;95915.41;5010876;28;20062;-77
2021/09/06 03:23:51;;;;;;;18.85;16.48;;;;;;;17.13;53.18;95923.28;5010376;28;20030;-78
2021/09/06 03:26:17;;;;;;;21.17;17.73;;;;;;;17.13;52.85;95929.44;5010176;28;20045;-78
2021/09/06 03:28:42;;;;;;;19.17;16.25;;;;;;;17.05;53.12;95924.94;4992728;28;20035;-77
2021/09/06 03:31:08;;;;;;;18.58;16.55;;;;;;;17.06;52.85;95923.03;4994931;28;20022;-77
2021/09/06 03:33:33;;;;;;;15.88;14.38;;;;;;;17.11;52.76;95937.06;4992951;28;20034;-78
2021/09/06 03:35:59;;;;;;;18.58;16.52;;;;;;;17.15;52.88;95937.19;5010801;28;20643;-78
2021/09/06 03:38:24;;;;;;;19.60;17.42;;;;;;;17.09;53.10;95928.50;5010718;28;20037;-77
2021/09/06 03:40:49;;;;;;;17.33;15.63;;;;;;;17.06;52.70;95915.75;5010005;28;20022;-78
2021/09/06 03:43:15;;;;;;;18.65;16.83;;;;;;;17.08;52.63;95918.09;5012175;28;20022;-78
2021/09/06 03:45:40;;;;;;;19.85;17.00;;;;;;;17.07;52.73;95927.28;4993062;28;20117;-76
2021/09/06 03:48:06;;;;;;;23.05;18.30;;;;;;;17.05;52.76;95930.31;5010786;28;20094;-78
2021/09/06 03:50:31;;;;;;;19.08;15.57;;;;;;;17.01;52.67;95920.53;4992676;28;20612;-79
2021/09/06 03:52:56;;;;;;;20.90;17.02;;;;;;;17.05;52.81;95924.94;4993160;28;20038;-78
2021/09/06 03:55:22;;;;;;;18.55;16.58;;;;;;;17.07;52.80;95938.03;5012311;28;20037;-78
2021/09/06 03:57:47;;;;;;;23.58;17.98;;;;;;;17.04;52.75;95928.72;4992584;28;20026;-77
2021/09/06 04:00:13;;;;;;;23.90;17.98;;;;;;;16.94;52.58;95922.91;5010104;28;20049;-77
2021/09/06 04:02:38;;;;;;;23.77;18.83;;;;;;;16.92;52.75;95915.19;5010501;28;20034;-77
2021/09/06 04:05:04;;;;;;;21.92;18.98;;;;;;;16.97;52.71;95925.75;4992808;28;20068;-78
2021/09/06 04:07:29;;;;;;;16.25;14.70;;;;;;;16.99;52.52;95936.97;4994710;28;20030;-77
2021/09/06 04:09:55;;;;;;;18.15;16.25;;;;;;;16.98;52.59;95926.53;5010064;28;20045;-76
2021/09/06 04:12:21;;;;;;;16.80;14.93;;;;;;;16.96;52.63;95934.94;5009892;28;20038;-77
2021/09/06 04:14:46;;;;;;;15.75;14.13;;;;;;;16.96;52.74;95934.94;4992837;28;20053;-78
2021/09/06 04:17:12;;;;;;;21.92;18.13;;;;;;;16.93;52.75;95926.72;5010395;28;20034;-77
2021/09/06 04:19:38;;;;;;;21.05;18.55;;;;;;;16.95;52.53;95944.13;5010073;28;20030;-76
2021/09/06 04:22:04;;;;;;;24.70;18.20;;;;;;;16.91;52.51;95935.13;5011841;28;20484;-78
2021/09/06 04:24:30;;;;;;;22.25;18.23;;;;;;;16.89;52.56;95938.13;5010178;28;20112;-78
2021/09/06 04:26:56;;;;;;;20.70;17.83;;;;;;;16.81;52.45;95930.91;5009833;28;20066;-77
2021/09/06 04:29:21;;;;;;;18.50;16.55;;;;;;;16.80;52.69;95932.03;5009508;28;20523;-77
2021/09/06 04:31:48;;;;;;;21.10;16.35;;;;;;;16.88;52.73;95935.75;5010606;28;20026;-80
2021/09/06 04:34:14;;;;;;;25.02;17.73;;;;;;;16.93;52.65;95949.00;4995332;28;20052;-79
2021/09/06 04:36:39;;;;;;;21.08;17.20;;;;;;;16.94;52.65;95955.16;5013555;28;20406;-77
2021/09/06 04:39:05;;;;;;;25.48;16.58;;;;;;;16.92;52.57;95944.75;5012869;28;20064;-72
2021/09/06 04:41:31;;;;;;;20.63;16.77;;;;;;;16.92;52.63;95954.72;4994643;28;20506;-78
2021/09/06 04:43:56;;;;;;;19.50;17.35;;;;;;;16.82;52.66;95939.75;4997142;28;20117;-84
2021/09/06 04:46:22;;;;;;;22.40;14.77;;;;;;;16.88;52.65;95943.81;5015009;28;20029;-76
2021/09/06 04:48:47;;;;;;;20.05;17.63;;;;;;;16.75;52.82;95929.50;4995261;28;20415;-76
2021/09/06 04:51:13;;;;;;;18.33;16.48;;;;;;;16.95;52.76;95959.47;4995175;28;20038;-77
2021/09/06 04:53:46;;;;;;;18.48;14.70;;;;;;;16.85;52.86;95944.47;5013242;28;20511;-78
2021/09/06 04:56:12;;;;;;;18.88;16.58;;;;;;;17.01;52.77;95971.59;4994647;28;20501;-76
2021/09/06 04:58:38;;;;;;;19.05;17.00;;;;;;;17.01;52.65;95967.00;5012497;28;20075;-77
2021/09/06 05:01:03;;;;;;;19.40;16.73;;;;;;;16.91;52.53;95947.78;4997379;28;20117;-76
2021/09/06 05:03:29;;;;;;;16.55;14.93;;;;;;;17.04;52.83;95970.94;5012380;28;20069;-77
2021/09/06 05:05:58;;;;;;;19.10;17.20;;;;;;;17.11;52.57;95985.44;5014769;28;20030;-77
2021/09/06 05:08:24;;;;;;;18.50;15.52;;;;;;;17.14;52.62;95979.41;5012978;28;20416;-77
2021/09/06 05:10:49;;;;;;;22.13;15.70;;;;;;;17.14;52.41;95965.97;5012016;28;20040;-77
2021/09/06 05:13:22;;;;;;;16.77;15.02;;;;;;;17.17;52.57;95964.53;5013777;28;20029;-77
2021/09/06 05:15:47;;;;;;;16.10;14.48;;;;;;;17.30;52.42;95981.53;4993063;28;20128;-77
2021/09/06 05:18:18;;;;;;;15.50;13.82;;;;;;;17.34;52.60;95985.94;4995314;28;20436;-76
2021/09/06 05:20:43;;;;;;;13.55;12.35;;;;;;;17.41;52.33;95980.06;4994389;28;20050;-74
2021/09/06 05:23:09;;;;;;;15.20;13.68;;;;;;;17.54;52.26;95979.00;4994379;28;20169;-75
2021/09/06 05:25:35;;;;;;;15.23;13.63;;;;;;;17.63;52.20;95990.50;4996166;28;20494;-76
2021/09/06 05:28:00;;;;;;;15.43;14.00;;;;;;;17.58;52.16;95974.53;4993741;28;20112;-73
2021/09/06 05:30:26;;;;;;;14.70;13.05;;;;;;;17.69;52.05;95969.56;5010803;28;20620;-71
2021/09/06 05:32:51;;;;;;;15.23;13.75;;;;;;;17.88;52.09;95990.66;5011786;28;20030;-82
2021/09/06 05:35:17;;;;;;;14.57;13.18;;;;;;;17.38;51.82;95903.50;5011191;28;20058;-70
2021/09/06 05:37:42;;;;;;;14.48;13.27;;;;;;;17.78;51.46;95954.16;5011206;28;20025;-70
2021/09/06 05:40:08;;;;;;;13.90;11.70;;;;;;;18.06;51.88;95980.50;5012629;28;20475;-79
2021/09/06 05:42:34;;;;;;;13.98;12.50;;;;;;;18.22;51.41;95992.25;5010717;28;20065;-75
2021/09/06 05:44:59;;;;;;;12.85;11.65;;;;;;;18.30;51.49;95993.28;5010809;28;20073;-72
2021/09/06 05:47:25;;;;;;;13.05;11.82;;;;;;;18.25;51.49;95969.25;5007839;28;20084;-78
2021/09/06 05:49:51;;;;;;;13.60;11.90;;;;;;;18.47;51.55;96001.16;4990220;28;20048;-73
2021/09/06 05:52:16;;;;;;;12.60;11.38;;;;;;;18.41;51.58;95978.25;5013023;28;20061;-75
2021/09/06 05:54:42;;;;;;;9.60;8.73;;;;;;;18.60;51.51;95992.00;5010489;28;20030;-70
2021/09/06 05:57:07;;;;;;;11.43;10.38;;;;;;;18.81;51.40;96010.81;5009831;28;20438;-74
2021/09/06 05:59:33;;;;;;;11.88;10.73;;;;;;;18.90;51.40;95998.03;5009924;28;20136;-73
2021/09/06 06:01:58;;;;;;;13.23;10.50;;;;;;;18.87;51.02;95982.50;5008677;28;20038;-69
2021/09/06 06:04:23;;;;;;;11.63;10.43;;;;;;;19.06;51.17;95990.03;5012254;28;20080;-69
2021/09/06 06:06:49;;;;;;;10.30;9.40;;;;;;;19.17;50.65;95991.16;5010719;28;20125;-72
2021/09/06 06:09:14;;;;;;;11.50;10.32;;;;;;;19.41;51.05;96008.47;5009634;28;20034;-71
2021/09/06 06:11:41;;;;;;;10.50;9.50;;;;;;;19.58;50.83;96010.13;5007086;28;20038;-73
2021/09/06 06:14:07;;;;;;;10.50;9.50;;;;;;;19.72;50.77;96005.19;5009998;28;20131;-72
2021/09/06 06:16:33;;;;;;;10.48;9.55;;;;;;;19.84;50.51;96012.44;5012926;28;20025;-78
2021/09/06 06:18:58;;;;;;;9.98;9.13;;;;;;;19.91;50.13;96009.94;5009922;28;20088;-72
2021/09/06 06:21:24;;;;;;;11.07;8.48;;;;;;;19.99;50.17;96004.41;5009393;28;20048;-72
2021/09/06 06:23:49;;;;;;;9.60;8.80;;;;;;;20.21;50.12;96010.41;4991272;28;20129;-75
2021/09/06 06:26:15;;;;;;;10.80;9.70;;;;;;;20.30;50.15;96011.03;4992623;28;20030;-78
2021/09/06 06:28:41;;;;;;;9.23;8.32;;;;;;;20.35;50.08;96010.78;5010107;28;20025;-73
2021/09/06 06:31:06;;;;;;;10.25;9.30;;;;;;;20.47;49.81;96010.78;5011581;28;20138;-73
2021/09/06 06:33:31;;;;;;;9.80;8.95;;;;;;;20.19;50.21;96016.16;5009868;28;20526;-79
2021/09/06 06:35:59;;;;;;;9.70;8.77;;;;;;;20.09;50.32;96023.97;5011591;28;20545;-76
2021/09/06 06:38:24;;;;;;;9.35;8.40;;;;;;;20.62;49.84;96019.25;5011518;28;20049;-77
2021/09/06 06:40:49;;;;;;;8.45;7.65;;;;;;;20.68;49.30;96021.38;5009969;28;20101;-72
2021/09/06 06:43:15;;;;;;;9.13;8.32;;;;;;;20.47;49.79;96020.78;5011460;28;20033;-81
2021/09/06 06:45:40;;;;;;;10.57;8.98;;;;;;;20.31;50.76;96022.63;5009432;28;20034;-70
2021/09/06 06:48:05;;;;;;;13.13;8.65;;;;;;;20.21;51.08;96027.41;5009357;28;20041;-71
2021/09/06 06:50:31;;;;;;;11.40;8.70;;;;;;;20.35;49.93;96021.59;5008956;28;20096;-70
2021/09/06 06:52:56;;;;;;;10.02;9.18;;;;;;;20.81;49.45;96032.09;4991313;28;20061;-70
2021/09/06 06:55:23;;;;;;;9.18;8.38;;;;;;;20.99;49.20;96042.22;4994088;28;20026;-70
2021/09/06 06:57:49;;;;;;;10.07;8.88;;;;;;;20.75;48.79;96013.41;4991023;28;20431;-70
2021/09/06 07:00:15;;;;;;;10.55;9.23;;;;;;;21.40;48.02;96023.91;5008221;28;20042;-72
2021/09/06 07:02:40;;;;;;;10.18;9.05;;;;;;;21.10;47.80;96018.16;4992471;28;20037;-76
2021/09/06 07:05:06;;;;;;;10.85;9.85;;;;;;;21.68;47.77;96039.22;4992248;28;20041;-77
2021/09/06 07:07:32;;;;;;;11.10;9.95;;;;;;;21.52;47.60;96039.25;4994476;28;20034;-76
2021/09/06 07:09:57;;;;;;;11.13;10.00;;;;;;;21.54;47.04;96005.25;5010030;28;20510;-83
2021/09/06 07:12:23;;;;;;;11.30;10.07;;;;;;;21.00;48.37;96019.44;5009227;28;20042;-79
2021/09/06 07:14:48;;;;;;;10.50;9.50;;;;;;;21.16;48.44;96057.31;5010189;28;20034;-80
2021/09/06 07:17:13;;;;;;;11.60;10.60;;;;;;;20.99;48.21;95995.47;5009703;28;20402;-82
2021/09/06 07:19:41;;;;;;;12.05;10.90;;;;;;;20.33;49.83;96021.16;4992252;28;20040;-76
2021/09/06 07:22:06;;;;;;;11.55;10.55;;;;;;;20.36;50.31;96015.06;4993314;28;20065;-76
2021/09/06 07:24:32;;;;;;;13.55;11.10;;;;;;;20.66;49.77;96017.41;4992195;28;20080;-79
2021/09/06 07:26:57;;;;;;;15.43;11.90;;;;;;;21.33;48.21;96025.66;4992304;28;20663;-76
2021/09/06 07:29:22;;;;;;;16.58;11.75;;;;;;;20.34;51.58;96052.47;4990136;28;20419;-75
2021/09/06 07:31:48;;;;;;;11.38;10.45;;;;;;;21.12;49.38;96032.09;5008795;28;20064;-75
2021/09/06 07:34:13;;;;;;;12.48;11.00;;;;;;;20.41;50.27;96020.22;5011185;28;20033;-75
2021/09/06 07:36:39;;;;;;;10.93;9.93;;;;;;;21.54;48.71;96018.00;4991258;28;20496;-74
2021/09/06 07:39:04;;;;;;;12.82;11.05;;;;;;;22.06;46.98;96011.41;5008659;28;20053;-75
2021/09/06 07:41:30;;;;;;;12.00;10.73;;;;;;;22.62;46.03;96067.09;4989916;28;20046;-74
2021/09/06 07:43:55;;;;;;;12.48;11.35;;;;;;;21.95;46.71;96029.34;4990857;28;20049;-75
2021/09/06 07:46:21;;;;;;;13.93;12.07;;;;;;;22.60;45.23;96034.13;5010572;28;20105;-74
2021/09/06 07:48:46;;;;;;;14.75;13.30;;;;;;;22.61;44.60;96036.47;5008062;28;20046;-75
2021/09/06 07:51:11;;;;;;;15.98;13.25;;;;;;;23.03;44.24;96060.09;4990660;28;20133;-74
2021/09/06 07:53:37;;;;;;;17.17;13.98;;;;;;;22.57;44.93;96046.47;5008451;28;20562;-74
2021/09/06 07:56:02;;;;;;;17.33;13.77;;;;;;;21.32;46.83;96035.69;4990512;28;20034;-75
2021/09/06 07:58:28;;;;;;;15.60;13.73;;;;;;;22.21;45.60;96047.69;5010167;28;20026;-74
2021/09/06 08:00:53;;;;;;;15.88;13.23;;;;;;;21.85;45.96;96019.06;4990232;28;20377;-75
2021/09/06 08:03:20;;;;;;;18.73;14.18;;;;;;;23.24;44.06;96073.28;4990957;28;20057;-75
2021/09/06 08:05:45;;;;;;;16.92;15.13;;;;;;;22.95;44.15;96047.59;4990278;28;20034;-75
2021/09/06 08:08:11;;;;;;;16.45;15.05;;;;;;;23.02;44.63;96048.47;5007790;28;20041;-74
2021/09/06 08:10:37;;;;;;;16.30;14.77;;;;;;;23.40;43.99;96038.63;4991621;28;20030;-74
2021/09/06 08:13:03;;;;;;;18.70;13.55;;;;;;;23.74;43.03;96050.41;4996422;28;20037;-75
2021/09/06 08:15:29;;;;;;;16.27;14.57;;;;;;;23.83;42.82;96050.91;4978545;28;20395;-74
2021/09/06 08:17:55;;;;;;;21.92;15.10;;;;;;;23.72;43.42;96058.13;5012292;28;20480;-75
2021/09/06 08:20:21;;;;;;;17.38;15.10;;;;;;;23.25;44.32;96050.41;5011387;28;20042;-76
2021/09/06 08:22:46;;;;;;;18.17;15.40;;;;;;;23.93;43.55;96044.06;4994858;28;20024;-75
2021/09/06 08:25:13;;;;;;;15.80;14.23;;;;;;;24.23;42.75;96068.53;4996680;28;20637;-73
2021/09/06 08:27:39;;;;;;;17.08;15.48;;;;;;;24.03;42.92;96064.38;4994068;28;20042;-75
2021/09/06 08:30:07;;;;;;;17.88;15.40;;;;;;;23.66;43.66;96080.56;5011314;28;20034;-75
2021/09/06 08:32:32;;;;;;;15.43;13.98;;;;;;;23.81;43.54;96063.31;5011822;28;20491;-74
2021/09/06 08:34:58;;;;;;;15.40;13.90;;;;;;;24.27;42.25;96061.22;5012211;28;20048;-75
2021/09/06 08:37:23;;;;;;;16.10;14.50;;;;;;;24.44;41.42;96056.38;4996608;28;20022;-74
2021/09/06 08:39:49;;;;;;;14.32;12.95;;;;;;;24.27;42.01;96060.44;4994248;28;20047;-75
2021/09/06 08:42:14;;;;;;;15.35;13.68;;;;;;;24.20;42.00;96039.34;4993753;28;20104;-74
2021/09/06 08:44:42;;;;;;;13.90;12.45;;;;;;;24.66;41.97;96073.72;4994078;28;20117;-75
2021/09/06 08:47:08;;;;;;;14.75;12.13;;;;;;;24.09;42.57;96074.56;4978151;28;20038;-74
2021/09/06 08:49:33;;;;;;;13.27;10.73;;;;;;;24.61;42.38;96086.47;5013169;28;20029;-74
2021/09/06 08:51:59;;;;;;;12.48;11.30;;;;;;;24.59;41.55;96074.41;4994055;28;20042;-75
2021/09/06 08:54:25;;;;;;;14.45;10.50;;;;;;;24.61;41.38;96063.94;5011722;28;20446;-75
2021/09/06 08:56:50;;;;;;;16.10;9.90;;;;;;;24.39;41.47;96065.63;5011427;28;20044;-73
2021/09/06 08:59:20;;;;;;;11.85;10.65;;;;;;;24.80;40.68;96082.03;5010825;28;20121;-75
2021/09/06 09:01:48;;;;;;;10.70;9.70;;;;;;;24.91;40.54;96082.91;4993806;28;20033;-75
2021/09/06 09:04:28;;;;;;;10.65;9.75;;;;;;;25.15;40.16;96095.25;5013700;28;20530;-75
2021/09/06 09:06:56;;;;;;;10.18;9.27;;;;;;;25.46;40.06;96090.44;5011781;28;20113;-74
2021/09/06 09:09:26;;;;;;;16.98;10.57;;;;;;;24.83;41.26;96100.34;5011242;28;20121;-75
2021/09/06 09:12:16;;;;;;;11.82;10.68;;;;;;;25.28;39.93;96091.06;5010958;28;20430;-75
2021/09/06 09:14:47;;;;;;;14.02;11.00;;;;;;;25.25;39.60;96064.59;5011700;28;20038;-76
2021/09/06 09:17:14;;;;;;;12.00;10.60;;;;;;;24.80;40.97;96095.63;4991928;28;20037;-81
2021/09/06 09:19:40;;;;;;;14.85;11.05;;;;;;;25.37;39.82;96097.00;5011279;28;20106;-70
2021/09/06 09:22:09;;;;;;;10.85;9.77;;;;;;;24.24;40.71;96026.59;5012111;28;20068;-71
2021/09/06 09:24:38;;;;;;;10.95;9.93;;;;;;;24.71;40.90;96090.47;5011167;28;20041;-72
2021/09/06 09:27:09;;;;;;;10.60;9.60;;;;;;;24.88;41.04;96061.91;5011235;28;20549;-80
2021/09/06 09:29:35;;;;;;;11.45;9.18;;;;;;;24.51;40.98;96061.88;5001790;28;20034;-79
2021/09/06 09:32:07;;;;;;;10.38;9.38;;;;;;;24.80;40.76;96071.94;4993821;28;20383;-77
2021/09/06 09:34:39;;;;;;;11.30;10.10;;;;;;;25.32;39.66;96047.53;4995520;28;20437;-77
2021/09/06 09:37:06;;;;;;;10.75;9.65;;;;;;;25.41;39.27;96083.41;5011768;28;20034;-75
2021/09/06 09:39:32;;;;;;;10.55;9.63;;;;;;;25.45;39.70;96067.09;4992234;28;20385;-75
2021/09/06 09:42:08;;;;;;;11.43;9.80;;;;;;;25.64;39.17;96054.03;5010695;28;20034;-70
2021/09/06 09:44:44;;;;;;;11.88;10.77;;;;;;;25.98;38.42;96077.59;5002762;28;20034;-74
2021/09/06 09:47:10;;;;;;;10.30;9.30;;;;;;;25.98;38.98;96064.75;5011039;28;20391;-71
2021/09/06 09:49:37;;;;;;;10.35;9.45;;;;;;;25.74;39.35;96078.97;4995146;28;20037;-76
2021/09/06 09:52:03;;;;;;;10.25;9.25;;;;;;;26.31;38.67;96082.84;4993915;28;20042;-76
2021/09/06 09:54:29;;;;;;;9.60;8.52;;;;;;;26.43;38.75;96088.00;5010483;28;20403;-74
2021/09/06 09:56:55;;;;;;;10.82;9.57;;;;;;;26.23;37.98;96051.25;4992442;28;20046;-78
2021/09/06 09:59:20;;;;;;;10.63;9.48;;;;;;;26.20;38.01;96082.00;5008432;28;20041;-75
2021/09/06 10:01:54;;;;;;;13.30;9.95;;;;;;;25.93;39.41;96084.97;5010952;28;20032;-75
2021/09/06 10:04:22;;;;;;;12.85;9.15;;;;;;;26.34;38.92;96087.53;5012975;28;20022;-75
2021/09/06 10:06:49;;;;;;;11.02;9.85;;;;;;;25.56;40.43;96079.63;4993158;28;20128;-75
2021/09/06 10:09:14;;;;;;;10.73;9.73;;;;;;;25.62;40.11;96080.06;4992411;28;20064;-78
2021/09/06 10:11:42;;;;;;;10.82;9.35;;;;;;;25.51;40.65;96087.38;4992878;28;20053;-75
2021/09/06 10:14:21;;;;;;;11.38;9.75;;;;;;;26.25;38.99;96087.09;4991472;28;20038;-74
2021/09/06 10:16:48;;;;;;;11.30;10.40;;;;;;;26.50;38.47;96061.91;4991470;28;20025;-77
2021/09/06 10:19:16;;;;;;;9.85;8.63;;;;;;;26.65;38.09;96067.00;4994308;28;20018;-74
2021/09/06 10:21:46;;;;;;;11.15;8.90;;;;;;;26.66;37.92;96084.16;4992596;28;20041;-75
2021/09/06 10:24:18;;;;;;;9.50;8.75;;;;;;;26.51;37.40;96056.03;5010175;28;20034;-75
2021/09/06 10:26:45;;;;;;;11.65;10.45;;;;;;;26.20;37.89;96084.72;4992639;28;20453;-76
2021/09/06 10:29:13;;;;;;;11.00;9.77;;;;;;;25.78;39.69;96086.03;5009148;28;20088;-77
2021/09/06 10:31:38;;;;;;;10.63;9.60;;;;;;;26.54;38.02;96081.78;5009662;28;20026;-76
2021/09/06 10:34:04;;;;;;;12.88;8.68;;;;;;;26.58;37.41;96074.41;5012236;28;20695;-76
2021/09/06 10:36:29;;;;;;;11.30;9.95;;;;;;;26.06;38.56;96051.94;4992090;28;20073;-75
2021/09/06 10:39:07;;;;;;;10.15;9.25;;;;;;;26.85;37.66;96080.31;5009378;28;20030;-76
2021/09/06 10:41:44;;;;;;;13.60;9.75;;;;;;;26.30;38.63;96075.81;5009921;28;20040;-76
2021/09/06 10:44:21;;;;;;;10.93;9.98;;;;;;;26.23;38.48;96075.78;4981312;28;20593;-75
2021/09/06 10:46:57;;;;;;;12.73;10.63;;;;;;;26.22;38.33;96049.69;4991814;28;20041;-75
2021/09/06 10:49:24;;;;;;;11.77;10.70;;;;;;;26.49;38.34;96035.78;5011513;28;20065;-78
2021/09/06 10:51:50;;;;;;;10.43;9.35;;;;;;;27.26;37.20;96080.03;4992097;28;20045;-75
2021/09/06 10:54:15;;;;;;;11.77;10.45;;;;;;;26.74;38.53;96071.34;4992086;28;20042;-75
2021/09/06 10:56:41;;;;;;;13.30;8.90;;;;;;;27.18;38.11;96076.53;5009522;28;20034;-77
2021/09/06 10:59:06;;;;;;;12.77;11.48;;;;;;;27.18;37.83;96076.53;4990891;28;20045;-76
2021/09/06 11:01:32;;;;;;;12.77;11.38;;;;;;;26.79;38.90;96081.88;5011408;28;20484;-76
2021/09/06 11:03:58;;;;;;;13.38;12.13;;;;;;;27.12;37.29;96067.91;5009934;28;20495;-75
2021/09/06 11:06:26;;;;;;;14.40;11.63;;;;;;;27.13;37.42;96065.97;5009708;28;20041;-75
2021/09/06 11:08:53;;;;;;;11.27;10.13;;;;;;;27.06;37.61;96061.25;5009262;28;20040;-75
2021/09/06 11:11:18;;;;;;;13.05;11.82;;;;;;;26.82;38.01;96070.97;5009365;28;20042;-74
2021/09/06 11:13:46;;;;;;;12.52;11.52;;;;;;;27.07;38.54;96071.03;5008685;28;20032;-75
2021/09/06 11:16:14;;;;;;;12.60;11.57;;;;;;;25.93;39.64;96067.84;5010608;28;20052;-75